CST,Max TemperatureF,Mean TemperatureF,Min TemperatureF,Max Dew PointF,MeanDew PointF,Min DewpointF,Max Humidity, Mean Humidity, Min Humidity, Max Sea Level PressureIn, Mean Sea Level PressureIn, Min Sea Level PressureIn, Max VisibilityMiles, Mean VisibilityMiles, Min VisibilityMiles, Max Wind SpeedMPH, Mean Wind SpeedMPH, Max Gust SpeedMPH,PrecipitationIn, CloudCover, Events, WindDirDegrees
2012-11-1,69,51,33,45,40,34,100,73,33,30.00,29.96,29.93,10,10,1,14,2,18,0.00,0,,8
2012-11-2,59,49,39,37,32,28,93,60,31,30.05,29.99,29.92,10,10,10,12,5,17,0.00,0,,76
2012-11-3,57,44,30,36,32,28,100,72,36,30.21,30.15,30.05,10,10,3,9,4,,0.00,0,,7
2012-11-4,60,46,33,46,38,30,93,73,39,30.20,30.12,30.01,10,10,7,12,2,17,0.01,3,Rain,162
2012-11-5,48,46,42,46,43,41,100,92,87,30.13,30.08,29.99,10,6,3,12,3,,0.09,7,Rain,44
2012-11-6,59,50,41,43,38,30,100,71,34,30.07,30.00,29.95,10,9,4,20,8,31,0.00,4,,282
2012-11-7,51,42,32,36,31,27,87,70,41,30.18,30.11,30.05,10,10,10,10,5,,0.03,0,,341
2012-11-8,66,50,33,36,32,27,81,57,26,30.09,29.96,29.87,10,10,10,16,5,22,0.00,0,,163
2012-11-9,69,55,41,54,44,34,81,65,46,29.89,29.80,29.70,10,10,10,10,4,,0.00,0,,149
2012-11-10,73,66,57,55,52,48,88,62,49,29.70,29.64,29.56,10,10,10,29,16,37,0.08,1,Rain,182
2012-11-11,57,39,21,54,26,14,94,77,55,30.18,29.92,29.63,10,9,4,21,11,29,0.86,5,Rain,306
2012-11-12,39,29,19,19,16,12,86,64,39,30.40,30.28,30.18,10,10,10,21,6,30,0.00,0,,267
2012-11-13,53,34,15,30,23,12,93,65,30,30.41,30.35,30.29,10,10,10,9,2,,0.00,0,,173
2012-11-14,55,40,26,30,25,19,93,58,25,30.35,30.30,30.23,10,10,10,17,5,21,0.00,0,,188
2012-11-15,55,42,28,34,29,25,93,66,41,30.42,30.30,30.22,10,10,1,6,3,,0.00,1,,189
2012-11-16,55,38,21,34,27,19,93,71,33,30.47,30.40,30.34,10,8,2,6,2,,0.00,0,,124
2012-11-17,60,42,24,36,27,21,93,59,27,30.35,30.29,30.22,10,9,3,18,5,26,0.00,0,,167
2012-11-18,60,50,39,36,29,27,65,44,27,30.24,30.16,30.10,10,10,10,16,9,21,0.00,4,Rain,167
2012-11-19,62,48,33,43,36,30,87,62,42,30.10,30.06,30.01,10,10,10,16,8,23,0.00,0,,205
2012-11-20,62,46,30,39,33,27,93,71,34,30.22,30.17,30.10,10,9,2,6,1,,0.00,0,,320
2012-11-21,71,50,30,41,36,27,93,59,29,30.17,30.05,29.88,10,9,7,23,7,28,0.00,0,,185
2012-11-22,66,52,37,46,37,28,75,57,30,30.22,29.92,29.77,10,10,10,22,11,32,0.00,0,,248
2012-11-23,39,26,14,28,12,7,79,53,35,30.47,30.39,30.20,10,10,10,22,12,38,0.00,1,,313
2012-11-24,42,28,14,21,14,9,86,57,29,30.40,30.12,29.87,10,10,10,15,3,20,0.00,0,,172
2012-11-25,42,32,23,27,23,19,86,67,49,30.13,29.98,29.86,10,10,7,10,3,,0.00,0,,7
2012-11-26,32,20,8,25,16,5,86,66,47,30.46,30.33,30.14,10,10,4,17,7,17,0.00,2,Snow,14
2012-11-27,39,24,8,16,11,3,92,66,36,30.45,30.33,30.21,10,10,10,15,3,18,0.00,0,,187
2012-11-28,48,31,14,25,18,10,86,64,30,30.40,30.28,30.14,10,10,7,9,2,,0.00,0,,178
2012-11-29,53,38,23,36,26,19,93,73,47,30.14,30.02,29.95,10,10,7,10,2,,0.00,0,,185
2012-11-30,48,34,21,32,26,19,93,77,54,30.08,30.02,29.96,10,8,5,8,1,,0.00,0,,326